createdAt,value
2017-04-11T00:00:34.383Z,40.94
2017-04-11T00:01:34.986Z,40.94
2017-04-11T00:02:35.590Z,40.84
2017-04-11T00:03:36.188Z,40.75
2017-04-11T00:04:36.794Z,40.75
2017-04-11T00:05:37.399Z,40.65
2017-04-11T00:06:37.996Z,40.94
2017-04-11T00:07:38.598Z,40.84
2017-04-11T00:08:39.199Z,40.94
2017-04-11T00:09:39.813Z,40.94
2017-04-11T00:10:40.414Z,40.84
2017-04-11T00:11:41.020Z,40.94
2017-04-11T00:12:41.623Z,40.75
2017-04-11T00:13:42.220Z,41.03
2017-04-11T00:14:42.821Z,41.13
2017-04-11T00:15:43.443Z,41.22
2017-04-11T00:16:44.045Z,41.22
2017-04-11T00:17:44.643Z,41.41
2017-04-11T00:18:45.243Z,41.13
2017-04-11T00:19:45.845Z,41.32
2017-04-11T00:20:46.445Z,41.15
2017-04-11T00:21:47.046Z,41.15
2017-04-11T00:22:47.647Z,41.05
2017-04-11T00:23:48.248Z,40.95
2017-04-11T00:24:48.848Z,40.95
2017-04-11T00:25:49.449Z,40.67
2017-04-11T00:26:50.049Z,40.77
2017-04-11T00:27:50.648Z,40.77
2017-04-11T00:28:51.247Z,40.67
2017-04-11T00:29:51.848Z,40.77
2017-04-11T00:30:52.449Z,40.77
2017-04-11T00:31:53.069Z,40.67
2017-04-11T00:32:53.668Z,40.58
2017-04-11T00:33:54.269Z,40.95
2017-04-11T00:34:54.875Z,40.67
2017-04-11T00:35:55.472Z,40.86
2017-04-11T00:36:56.072Z,40.86
2017-04-11T00:37:56.673Z,40.77
2017-04-11T00:38:57.272Z,41.05
2017-04-11T00:39:57.875Z,40.95
2017-04-11T00:40:58.476Z,40.77
2017-04-11T00:41:59.078Z,40.95
2017-04-11T00:42:59.692Z,40.67
2017-04-11T00:44:00.290Z,40.86
2017-04-11T00:45:00.891Z,41.24
2017-04-11T00:46:01.498Z,41.24
2017-04-11T00:47:02.101Z,41.34
2017-04-11T00:48:02.723Z,41.07
2017-04-11T00:49:03.325Z,40.95
2017-04-11T00:50:03.923Z,41.24
2017-04-11T00:51:04.524Z,40.59
2017-04-11T00:52:05.125Z,40.88
2017-04-11T00:53:05.726Z,40.98
2017-04-11T00:54:06.324Z,40.69
2017-04-11T00:55:06.927Z,40.50
2017-04-11T00:56:07.526Z,40.88
2017-04-11T00:57:08.132Z,40.50
2017-04-11T00:58:08.731Z,40.98
2017-04-11T00:59:09.330Z,40.29
2017-04-11T01:00:09.948Z,40.48
2017-04-11T01:01:10.552Z,41.05
2017-04-11T01:02:11.168Z,40.58
2017-04-11T01:03:11.769Z,40.58
2017-04-11T01:04:12.369Z,40.58
2017-04-11T01:05:12.973Z,40.67
2017-04-11T01:06:13.568Z,40.48
2017-04-11T01:07:14.185Z,40.67
2017-04-11T01:08:14.784Z,40.58
2017-04-11T01:09:15.391Z,40.58
2017-04-11T01:10:16.006Z,40.67
2017-04-11T01:11:16.606Z,40.77
2017-04-11T01:12:17.206Z,40.77
2017-04-11T01:13:17.812Z,40.67
2017-04-11T01:14:18.416Z,40.95
2017-04-11T01:15:19.017Z,40.95
2017-04-11T01:16:19.616Z,40.84
2017-04-11T01:17:20.216Z,40.94
2017-04-11T01:18:20.817Z,40.94
2017-04-11T01:19:21.416Z,40.95
2017-04-11T01:20:22.016Z,40.86
2017-04-11T01:21:22.616Z,40.75
2017-04-11T01:22:23.222Z,40.75
2017-04-11T01:23:23.825Z,40.75
2017-04-11T01:24:24.422Z,41.03
2017-04-11T01:25:25.037Z,40.75
2017-04-11T01:26:25.644Z,41.03
2017-04-11T01:27:26.241Z,41.22
2017-04-11T01:28:26.842Z,41.13
2017-04-11T01:29:27.446Z,41.22
2017-04-11T01:30:28.042Z,41.22
2017-04-11T01:31:28.647Z,41.41
2017-04-11T01:32:29.249Z,41.32
2017-04-11T01:33:29.846Z,41.22
2017-04-11T01:34:30.452Z,41.51
2017-04-11T01:35:31.055Z,41.89
2017-04-11T01:36:31.657Z,41.80
2017-04-11T01:37:32.256Z,41.70
2017-04-11T01:38:32.854Z,41.99
2017-04-11T01:39:33.469Z,42.08
2017-04-11T01:40:34.072Z,41.99
2017-04-11T01:41:34.671Z,42.08
2017-04-11T01:42:35.271Z,42.08
2017-04-11T01:43:35.876Z,42.08
2017-04-11T01:44:36.471Z,41.99
2017-04-11T01:45:37.091Z,41.80
2017-04-11T01:46:37.690Z,42.18
2017-04-11T01:47:38.289Z,41.51
2017-04-11T01:48:38.891Z,42.27
2017-04-11T01:49:39.495Z,41.99
2017-04-11T01:50:40.094Z,41.70
2017-04-11T01:51:40.699Z,42.07
2017-04-11T01:52:41.296Z,42.16
2017-04-11T01:53:41.903Z,41.97
2017-04-11T01:54:42.496Z,41.87
2017-04-11T01:55:43.096Z,41.97
2017-04-11T01:56:43.711Z,41.87
2017-04-11T01:57:44.310Z,41.87
2017-04-11T01:58:44.918Z,42.07
2017-04-11T01:59:45.520Z,41.68
2017-04-11T02:00:46.118Z,42.16
2017-04-11T02:01:46.716Z,42.07
2017-04-11T02:02:47.323Z,41.97
2017-04-11T02:05:04.012Z,42.16
2017-04-11T02:06:04.603Z,42.54
2017-04-11T02:07:05.202Z,42.54
2017-04-11T02:08:05.803Z,42.07
2017-04-11T02:09:06.403Z,42.25
2017-04-11T02:10:07.253Z,42.25
2017-04-11T02:11:07.854Z,42.35
2017-04-11T02:12:08.458Z,42.25
2017-04-11T02:13:09.073Z,42.16
2017-04-11T02:14:09.680Z,42.16
2017-04-11T02:15:10.277Z,42.07
2017-04-11T02:16:10.877Z,42.07
2017-04-11T02:17:11.476Z,41.97
2017-04-11T02:18:12.077Z,42.07
2017-04-11T02:19:12.676Z,41.87
2017-04-11T02:20:13.295Z,42.35
2017-04-11T02:21:13.890Z,42.16
2017-04-11T02:22:14.491Z,42.16
2017-04-11T02:23:15.091Z,42.35
2017-04-11T02:24:15.690Z,42.44
2017-04-11T02:25:16.292Z,42.54
2017-04-11T02:26:16.898Z,42.83
2017-04-11T02:27:17.494Z,42.54
2017-04-11T02:28:18.092Z,42.73
2017-04-11T02:29:18.700Z,42.44
2017-04-11T02:30:19.319Z,42.54
2017-04-11T02:31:19.915Z,42.64
2017-04-11T02:32:20.514Z,42.54
2017-04-11T02:33:21.131Z,42.54
2017-04-11T02:34:21.729Z,42.44
2017-04-11T02:35:22.336Z,42.54
2017-04-11T02:36:22.934Z,42.83
2017-04-11T02:37:23.533Z,42.73
2017-04-11T02:38:24.136Z,42.73
2017-04-11T02:39:24.741Z,42.93
2017-04-11T02:40:25.338Z,42.93
2017-04-11T02:41:25.936Z,42.73
2017-04-11T02:42:26.541Z,42.83
2017-04-11T02:43:27.158Z,43.02
2017-04-11T02:44:27.757Z,42.93
2017-04-11T02:45:28.356Z,42.73
2017-04-11T02:46:28.957Z,42.54
2017-04-11T02:47:29.555Z,42.47
2017-04-11T02:48:30.174Z,42.64
2017-04-11T02:49:30.772Z,42.56
2017-04-11T02:50:31.388Z,42.56
2017-04-11T02:51:31.987Z,42.94
2017-04-11T02:52:32.587Z,42.66
2017-04-11T02:53:33.186Z,42.66
2017-04-11T02:54:33.786Z,42.85
2017-04-11T02:55:34.390Z,42.47
2017-04-11T02:56:34.987Z,42.76
2017-04-11T02:57:35.588Z,42.66
2017-04-11T02:58:36.204Z,42.47
2017-04-11T02:59:36.807Z,42.47
2017-04-11T03:00:37.405Z,42.47
2017-04-11T03:01:38.004Z,42.56
2017-04-11T03:02:38.608Z,42.18
2017-04-11T03:03:39.219Z,42.27
2017-04-11T03:04:39.823Z,42.47
2017-04-11T03:05:40.422Z,42.37
2017-04-11T03:06:41.023Z,42.37
2017-04-11T03:07:41.629Z,42.25
2017-04-11T03:08:42.226Z,42.25
2017-04-11T03:09:42.831Z,42.44
2017-04-11T03:10:43.429Z,42.64
2017-04-11T03:11:44.033Z,42.44
2017-04-11T03:12:44.630Z,42.73
2017-04-11T03:13:45.229Z,42.54
2017-04-11T03:14:45.829Z,42.83
2017-04-11T03:15:46.429Z,42.64
2017-04-11T03:16:47.027Z,42.64
2017-04-11T03:17:47.629Z,42.64
2017-04-11T03:18:48.233Z,43.09
2017-04-11T03:19:48.836Z,42.93
2017-04-11T03:20:49.431Z,43.00
2017-04-11T03:21:50.052Z,43.57
2017-04-11T03:22:50.648Z,43.29
2017-04-11T03:23:51.252Z,43.38
2017-04-11T03:24:51.854Z,43.19
2017-04-11T03:25:52.450Z,43.66
2017-04-11T03:26:53.050Z,43.48
2017-04-11T03:27:53.666Z,43.19
2017-04-11T03:28:54.264Z,43.57
2017-04-11T03:29:54.863Z,43.76
2017-04-11T03:30:55.464Z,43.48
2017-04-11T03:31:56.069Z,43.66
2017-04-11T03:32:56.670Z,44.05
2017-04-11T03:33:57.266Z,44.15
2017-04-11T03:34:57.867Z,44.24
2017-04-11T03:35:58.466Z,44.15
2017-04-11T03:36:59.081Z,44.15
2017-04-11T03:37:59.680Z,44.24
2017-04-11T03:39:00.285Z,44.24
2017-04-11T03:40:00.884Z,44.05
2017-04-11T03:41:01.482Z,44.34
2017-04-11T03:42:02.081Z,44.15
2017-04-11T03:43:02.681Z,44.24
2017-04-11T03:44:03.297Z,44.34
2017-04-11T03:45:03.895Z,44.53
2017-04-11T03:46:04.500Z,44.15
2017-04-11T03:47:05.105Z,44.24
2017-04-11T03:48:05.717Z,44.24
2017-04-11T03:49:06.317Z,44.24
2017-04-11T03:50:06.942Z,44.24
2017-04-11T03:51:07.516Z,44.15
2017-04-11T03:52:08.113Z,43.95
2017-04-11T03:53:08.714Z,43.86
2017-04-11T03:54:09.313Z,43.95
2017-04-11T03:55:09.919Z,44.43
2017-04-11T03:56:10.515Z,43.84
2017-04-11T03:57:11.114Z,44.12
2017-04-11T03:58:11.717Z,44.24
2017-04-11T03:59:12.313Z,44.22
2017-04-11T04:00:12.919Z,44.41
2017-04-11T04:01:13.516Z,44.02
2017-04-11T04:02:14.117Z,43.93
2017-04-11T04:03:14.715Z,44.31
2017-04-11T04:04:15.313Z,43.84
2017-04-11T04:05:15.911Z,43.74
2017-04-11T04:06:16.511Z,43.46
2017-04-11T04:07:17.109Z,44.12
2017-04-11T04:08:17.713Z,43.84
2017-04-11T04:09:18.310Z,44.02
2017-04-11T04:10:18.910Z,44.12
2017-04-11T04:11:19.507Z,44.12
2017-04-11T04:12:20.109Z,43.93
2017-04-11T04:13:20.712Z,43.93
2017-04-11T04:14:21.314Z,44.02
2017-04-11T04:15:21.916Z,44.02
2017-04-11T04:16:22.512Z,44.22
2017-04-11T04:17:23.111Z,44.22
2017-04-11T04:18:23.710Z,43.84
2017-04-11T04:19:24.309Z,43.93
2017-04-11T04:20:24.906Z,43.93
2017-04-11T04:21:25.506Z,44.02
2017-04-11T04:22:26.104Z,44.12
2017-04-11T04:23:26.708Z,43.74
2017-04-11T04:24:27.311Z,43.46
2017-04-11T04:25:27.930Z,43.55
2017-04-11T04:26:28.528Z,43.84
2017-04-11T04:27:29.126Z,44.12
2017-04-11T04:28:29.742Z,44.12
2017-04-11T04:29:30.327Z,44.22
2017-04-11T04:30:30.925Z,44.12
2017-04-11T04:31:31.529Z,44.12
2017-04-11T04:32:32.124Z,43.74
2017-04-11T04:33:32.730Z,43.55
2017-04-11T04:34:33.344Z,43.84
2017-04-11T04:35:33.945Z,43.93
2017-04-11T04:36:34.560Z,43.74
2017-04-11T04:38:50.639Z,44.10
2017-04-11T04:39:51.246Z,43.72
2017-04-11T04:40:51.843Z,43.91
2017-04-11T04:41:52.460Z,44.01
2017-04-11T04:42:53.065Z,44.10
2017-04-11T04:43:53.682Z,44.29
2017-04-11T04:44:54.295Z,44.48
2017-04-11T04:45:54.895Z,44.29
2017-04-11T04:46:55.499Z,44.20
2017-04-11T04:47:56.103Z,44.58
2017-04-11T04:48:56.706Z,44.48
2017-04-11T04:49:57.304Z,44.20
2017-04-11T04:50:57.902Z,44.38
2017-04-11T04:51:58.507Z,44.20
2017-04-11T04:52:59.106Z,44.01
2017-04-11T04:53:59.705Z,44.48
2017-04-11T04:55:00.306Z,44.58
2017-04-11T04:56:00.906Z,44.38
2017-04-11T04:57:01.520Z,44.77
2017-04-11T04:58:02.127Z,44.38
2017-04-11T04:59:02.731Z,44.48
2017-04-11T05:00:03.330Z,44.20
2017-04-11T05:01:03.929Z,44.38
2017-04-11T05:02:04.546Z,44.20
2017-04-11T05:03:05.147Z,44.20
2017-04-11T05:04:05.749Z,44.20
2017-04-11T05:05:06.349Z,43.82
2017-04-11T05:06:06.952Z,44.29
2017-04-11T05:07:07.553Z,44.38
2017-04-11T05:08:08.159Z,44.20
2017-04-11T05:09:08.757Z,44.29
2017-04-11T05:10:09.359Z,44.10
2017-04-11T05:11:09.960Z,44.48
2017-04-11T05:12:10.568Z,44.20
2017-04-11T05:13:11.186Z,44.48
2017-04-11T05:14:11.789Z,44.38
2017-04-11T05:15:12.392Z,44.29
2017-04-11T05:16:12.992Z,44.20
2017-04-11T05:17:13.595Z,44.38
2017-04-11T05:18:14.197Z,44.29
2017-04-11T05:19:14.805Z,44.20
2017-04-11T05:20:15.410Z,43.93
2017-04-11T05:21:16.008Z,44.38
2017-04-11T05:22:16.616Z,44.29
2017-04-11T05:23:17.214Z,44.22
2017-04-11T05:24:17.832Z,44.41
2017-04-11T05:25:18.440Z,43.93
2017-04-11T05:26:19.041Z,44.02
2017-04-11T05:27:19.644Z,43.84
2017-04-11T05:28:20.243Z,43.55
2017-04-11T05:29:20.845Z,43.84
2017-04-11T05:30:21.448Z,43.26
2017-04-11T05:31:22.057Z,43.46
2017-04-11T05:32:22.655Z,43.17
2017-04-11T05:33:23.272Z,43.84
2017-04-11T05:34:23.874Z,43.36
2017-04-11T05:35:24.481Z,43.46
2017-04-11T05:36:25.099Z,43.36
2017-04-11T05:37:25.701Z,43.36
2017-04-11T05:38:26.304Z,43.26
2017-04-11T05:39:26.908Z,43.36
2017-04-11T05:40:27.509Z,43.26
2017-04-11T05:41:28.111Z,43.93
2017-04-11T05:42:28.717Z,43.74
2017-04-11T05:43:29.334Z,43.17
2017-04-11T05:44:29.935Z,43.46
2017-04-11T05:45:30.537Z,43.36
2017-04-11T05:46:31.139Z,43.07
2017-04-11T05:47:31.755Z,42.79
2017-04-11T05:48:32.375Z,42.97
2017-04-11T05:49:32.973Z,42.79
2017-04-11T05:50:33.575Z,42.97
2017-04-11T05:51:34.177Z,42.97
2017-04-11T05:52:34.780Z,43.07
2017-04-11T05:53:35.382Z,42.88
2017-04-11T05:54:35.983Z,43.07
2017-04-11T05:55:36.588Z,42.97
2017-04-11T05:56:37.189Z,42.97
2017-04-11T05:57:37.800Z,43.17
2017-04-11T05:58:38.397Z,43.26
2017-04-11T05:59:39.015Z,42.79
2017-04-11T06:00:39.616Z,42.60
2017-04-11T06:01:40.238Z,42.79
2017-04-11T06:02:40.842Z,42.69
2017-04-11T06:03:41.448Z,42.60
2017-04-11T06:04:42.066Z,42.79
2017-04-11T06:05:42.673Z,42.79
2017-04-11T06:06:43.272Z,42.69
2017-04-11T06:07:43.876Z,42.79
2017-04-11T06:08:44.479Z,42.60
2017-04-11T06:09:45.086Z,42.88
2017-04-11T06:10:45.685Z,42.88
2017-04-11T06:11:46.289Z,43.07
2017-04-11T06:12:46.891Z,43.07
2017-04-11T06:13:47.504Z,42.88
2017-04-11T06:14:48.116Z,42.88
2017-04-11T06:15:48.719Z,42.88
2017-04-11T06:16:49.325Z,42.88
2017-04-11T06:17:49.925Z,42.60
2017-04-11T06:18:50.526Z,42.60
2017-04-11T06:19:51.130Z,42.60
2017-04-11T06:20:51.748Z,42.77
2017-04-11T06:21:52.352Z,42.57
2017-04-11T06:22:52.959Z,42.57
2017-04-11T06:23:53.558Z,42.77
2017-04-11T06:24:54.168Z,42.86
2017-04-11T06:25:54.768Z,43.05
2017-04-11T06:26:55.371Z,42.86
2017-04-11T06:27:55.975Z,42.86
2017-04-11T06:28:56.578Z,42.86
2017-04-11T06:29:57.181Z,43.05
2017-04-11T06:30:57.784Z,42.57
2017-04-11T06:31:58.387Z,42.67
2017-04-11T06:32:58.990Z,42.57
2017-04-11T06:33:59.631Z,42.57
2017-04-11T06:35:00.197Z,42.57
2017-04-11T06:36:00.798Z,42.10
2017-04-11T06:37:01.416Z,42.19
2017-04-11T06:38:02.026Z,42.77
2017-04-11T06:39:02.632Z,42.57
2017-04-11T06:40:03.239Z,42.57
2017-04-11T06:41:03.845Z,42.77
2017-04-11T06:42:04.449Z,42.57
2017-04-11T06:43:05.077Z,42.48
2017-04-11T06:44:05.674Z,42.57
2017-04-11T06:45:06.277Z,42.48
2017-04-11T06:46:06.879Z,42.40
2017-04-11T06:47:07.483Z,42.29
2017-04-11T06:48:08.087Z,42.10
2017-04-11T06:49:08.688Z,42.48
2017-04-11T06:50:09.291Z,42.77
2017-04-11T06:51:09.900Z,42.77
2017-04-11T06:52:10.502Z,42.48
2017-04-11T06:53:11.105Z,42.69
2017-04-11T06:54:11.724Z,42.00
2017-04-11T06:55:12.333Z,42.21
2017-04-11T06:56:12.934Z,42.11
2017-04-11T06:57:13.552Z,42.40
2017-04-11T06:58:14.155Z,42.21
2017-04-11T06:59:14.760Z,42.31
2017-04-11T07:00:15.363Z,42.40
2017-04-11T07:01:15.974Z,42.40
2017-04-11T07:02:16.583Z,42.21
2017-04-11T07:03:17.186Z,42.11
2017-04-11T07:04:17.789Z,42.02
2017-04-11T07:05:18.392Z,42.04
2017-04-11T07:06:19.004Z,41.95
2017-04-11T07:07:19.605Z,42.24
2017-04-11T07:08:20.212Z,41.47
2017-04-11T07:09:20.835Z,41.49
2017-04-11T07:10:21.437Z,41.39
2017-04-11T07:11:22.050Z,41.87
2017-04-11T07:12:22.669Z,41.68
2017-04-11T07:13:23.276Z,41.20
2017-04-11T07:14:23.885Z,41.11
2017-04-11T07:15:24.488Z,40.53
2017-04-11T07:16:25.093Z,40.72
2017-04-11T07:17:25.704Z,40.72
2017-04-11T07:18:26.306Z,40.46
2017-04-11T07:19:26.913Z,40.55
2017-04-11T07:20:27.526Z,40.84
2017-04-11T07:21:28.134Z,40.84
2017-04-11T07:22:28.737Z,39.98
2017-04-11T07:23:29.347Z,39.50
2017-04-11T07:24:29.965Z,39.69
2017-04-11T07:25:30.572Z,39.69
2017-04-11T07:26:31.178Z,39.60
2017-04-11T07:27:31.785Z,40.00
2017-04-11T07:28:32.396Z,39.62
2017-04-11T07:29:33.000Z,39.22
2017-04-11T07:30:33.606Z,39.33
2017-04-11T07:31:34.214Z,38.85
2017-04-11T07:32:34.819Z,39.14
2017-04-11T07:33:35.434Z,39.33
2017-04-11T07:34:36.044Z,40.00
2017-04-11T07:35:36.654Z,39.25
2017-04-11T07:36:37.259Z,39.16
2017-04-11T07:37:37.867Z,38.87
2017-04-11T07:38:38.484Z,38.59
2017-04-11T07:39:39.083Z,38.39
2017-04-11T07:40:39.693Z,38.30
2017-04-11T07:41:40.321Z,38.49
2017-04-11T07:42:40.934Z,38.10
2017-04-11T07:43:41.541Z,38.39
2017-04-11T07:44:42.150Z,38.39
2017-04-11T07:45:42.765Z,38.32
2017-04-11T07:46:43.369Z,38.22
2017-04-11T07:47:43.994Z,37.76
2017-04-11T07:48:44.627Z,37.57
2017-04-11T07:49:45.233Z,37.59
2017-04-11T07:50:45.843Z,37.60
2017-04-11T07:51:46.459Z,36.84
2017-04-11T07:52:47.073Z,36.47
2017-04-11T07:53:47.700Z,35.34
2017-04-11T07:54:48.309Z,35.14
2017-04-11T07:55:48.922Z,35.24
2017-04-11T07:56:49.535Z,34.95
2017-04-11T07:57:50.144Z,34.86
2017-04-11T07:58:50.756Z,34.67
2017-04-11T07:59:51.367Z,35.22
2017-04-11T08:00:51.992Z,35.13
2017-04-11T08:01:52.601Z,35.22
2017-04-11T08:02:53.213Z,35.24
2017-04-11T08:03:53.824Z,35.03
2017-04-11T08:04:54.449Z,35.14
2017-04-11T08:05:55.059Z,35.34
2017-04-11T08:06:55.669Z,34.76
2017-04-11T08:07:56.281Z,34.67
2017-04-11T08:08:56.891Z,34.47
2017-04-11T08:09:57.500Z,33.70
2017-04-11T08:10:58.111Z,33.80
2017-04-11T08:11:58.721Z,33.99
2017-04-11T08:12:59.334Z,33.82
2017-04-11T08:13:59.952Z,33.91
2017-04-11T08:15:00.567Z,34.03
2017-04-11T08:16:01.174Z,33.45
2017-04-11T08:17:01.786Z,33.47
2017-04-11T08:18:02.399Z,33.18
2017-04-11T08:19:03.011Z,32.90
2017-04-11T08:20:03.626Z,32.52
2017-04-11T08:21:04.251Z,32.33
2017-04-11T08:22:04.864Z,32.23
2017-04-11T08:23:05.477Z,32.04
2017-04-11T08:24:06.092Z,32.31
2017-04-11T08:25:06.707Z,32.21
2017-04-11T08:26:07.316Z,32.39
2017-04-11T08:27:07.928Z,32.49
2017-04-11T08:28:08.540Z,32.30
2017-04-11T08:29:09.164Z,32.87
2017-04-11T08:30:09.769Z,32.59
2017-04-11T08:31:10.377Z,32.51
2017-04-11T08:32:10.989Z,32.31
2017-04-11T08:33:11.598Z,32.39
2017-04-11T08:34:12.211Z,32.10
2017-04-11T08:35:12.836Z,31.82
2017-04-11T08:36:13.454Z,31.90
2017-04-11T08:37:14.062Z,31.99
2017-04-11T08:38:14.688Z,32.38
2017-04-11T08:39:15.358Z,32.87
2017-04-11T08:40:15.986Z,32.31
2017-04-11T08:41:16.597Z,31.83
2017-04-11T08:42:17.209Z,31.54
2017-04-11T08:43:17.834Z,31.37
2017-04-11T08:44:18.445Z,30.58
2017-04-11T08:45:19.063Z,30.97
2017-04-11T08:46:19.673Z,30.97
2017-04-11T08:47:20.284Z,30.68
2017-04-11T08:48:20.894Z,30.68
2017-04-11T08:49:21.512Z,30.49
2017-04-11T08:50:22.119Z,30.49
2017-04-11T08:51:22.740Z,30.77
2017-04-11T08:52:23.349Z,30.58
2017-04-11T08:53:23.968Z,30.49
2017-04-11T08:54:24.575Z,30.19
2017-04-11T08:55:25.186Z,30.49
2017-04-11T08:56:25.798Z,31.06
2017-04-11T08:57:26.410Z,30.58
2017-04-11T08:58:27.021Z,30.87
2017-04-11T08:59:27.633Z,30.87
2017-04-11T09:00:28.244Z,30.58
2017-04-11T09:01:28.855Z,30.87
2017-04-11T09:02:29.465Z,30.39
2017-04-11T09:03:30.091Z,30.39
2017-04-11T09:04:30.708Z,30.21
2017-04-11T09:05:31.317Z,30.40
2017-04-11T09:06:31.930Z,29.63
2017-04-11T09:07:32.544Z,29.25
2017-04-11T09:08:33.154Z,29.15
2017-04-11T09:09:33.765Z,29.25
2017-04-11T09:10:34.377Z,29.24
2017-04-11T09:11:34.997Z,29.62
2017-04-11T09:12:35.610Z,29.81
2017-04-11T09:13:36.221Z,30.21
2017-04-11T09:14:36.836Z,30.22
2017-04-11T09:15:37.448Z,29.86
2017-04-11T09:16:38.061Z,29.49
2017-04-11T09:17:38.681Z,29.03
2017-04-11T09:18:39.307Z,28.37
2017-04-11T09:19:39.926Z,28.00
2017-04-11T09:20:40.561Z,28.19
2017-04-11T09:21:41.190Z,28.00
2017-04-11T09:22:41.806Z,27.34
2017-04-11T09:23:42.427Z,27.93
2017-04-11T09:24:43.040Z,26.57
2017-04-11T09:25:43.654Z,26.68
2017-04-11T09:26:44.276Z,26.20
2017-04-11T09:27:44.894Z,26.12
2017-04-11T09:28:45.506Z,26.14
2017-04-11T09:29:46.124Z,25.07
2017-04-11T09:30:46.742Z,25.18
2017-04-11T09:31:47.358Z,25.08
2017-04-11T09:32:47.983Z,24.98
2017-04-11T09:33:48.597Z,24.80
2017-04-11T09:34:49.212Z,24.13
2017-04-11T09:35:49.829Z,24.54
2017-04-11T09:36:50.448Z,24.06
2017-04-11T09:37:51.067Z,23.38
2017-04-11T09:38:51.687Z,23.39
2017-04-11T09:39:52.322Z,23.21
2017-04-11T09:40:52.957Z,22.54
2017-04-11T09:41:53.583Z,22.55
2017-04-11T09:42:54.207Z,22.55
2017-04-11T09:43:54.830Z,22.37
2017-04-11T09:44:55.449Z,22.08
2017-04-11T09:45:56.067Z,21.59
2017-04-11T09:46:56.686Z,21.48
2017-04-11T09:47:57.306Z,21.47
2017-04-11T09:48:57.924Z,21.16
2017-04-11T09:49:58.545Z,21.54
2017-04-11T09:50:59.165Z,21.71
2017-04-11T09:51:59.790Z,22.30
2017-04-11T09:53:00.405Z,22.67
2017-04-11T09:54:01.023Z,22.47
2017-04-11T09:55:01.640Z,22.85
2017-04-11T09:56:02.260Z,22.65
2017-04-11T09:57:02.885Z,23.22
2017-04-11T09:58:03.514Z,23.40
2017-04-11T09:59:04.140Z,23.69
2017-04-11T10:00:04.760Z,23.29
2017-04-11T10:01:05.374Z,23.49
2017-04-11T10:02:05.990Z,23.96
2017-04-11T10:03:06.623Z,23.96
2017-04-11T10:04:07.238Z,23.86
2017-04-11T10:05:07.853Z,23.96
2017-04-11T10:06:08.473Z,24.33
2017-04-11T10:07:09.086Z,23.75
2017-04-11T10:08:09.717Z,23.85
2017-04-11T10:09:10.331Z,23.65
2017-04-11T10:10:10.947Z,23.34
2017-04-11T10:11:11.567Z,23.72
2017-04-11T10:12:12.183Z,24.19
2017-04-11T10:13:12.794Z,24.46
2017-04-11T10:14:13.412Z,24.66
2017-04-11T10:15:14.020Z,25.33
2017-04-11T10:16:14.654Z,24.95
2017-04-11T10:17:15.265Z,25.32
2017-04-11T10:18:15.878Z,25.32
2017-04-11T10:19:16.491Z,25.51
2017-04-11T10:20:17.120Z,25.80
2017-04-11T10:21:17.733Z,25.99
2017-04-11T10:22:18.353Z,25.80
2017-04-11T10:23:18.977Z,25.70
2017-04-11T10:24:19.591Z,25.70
2017-04-11T10:25:20.212Z,25.60
2017-04-11T10:26:20.816Z,25.60
2017-04-11T10:27:21.428Z,25.80
2017-04-11T10:28:22.043Z,25.70
2017-04-11T10:29:22.653Z,25.70
2017-04-11T10:30:23.276Z,25.60
2017-04-11T10:31:23.881Z,25.62
2017-04-11T10:32:24.492Z,25.81
2017-04-11T10:33:25.105Z,25.60
2017-04-11T10:34:25.715Z,25.52
2017-04-11T10:35:26.327Z,25.52
2017-04-11T10:36:26.940Z,25.51
2017-04-11T10:37:27.566Z,25.51
2017-04-11T10:38:28.185Z,25.51
2017-04-11T10:39:28.794Z,25.60
2017-04-11T10:40:29.405Z,25.32
2017-04-11T10:41:30.015Z,25.42
2017-04-11T10:42:30.626Z,25.70
2017-04-11T10:43:31.237Z,25.70
2017-04-11T10:44:31.849Z,25.88
2017-04-11T10:45:32.461Z,25.88
2017-04-11T10:46:33.073Z,26.07
2017-04-11T10:47:33.683Z,25.79
2017-04-11T10:48:34.293Z,25.79
2017-04-11T10:49:34.907Z,25.88
2017-04-11T10:50:35.517Z,25.79
2017-04-11T10:51:36.134Z,25.79
2017-04-11T10:52:36.741Z,25.68
2017-04-11T10:53:37.352Z,25.96
2017-04-11T10:54:37.962Z,26.06
2017-04-11T10:55:38.572Z,26.35
2017-04-11T10:56:39.189Z,26.16
2017-04-11T10:57:39.796Z,26.45
2017-04-11T10:58:40.405Z,26.06
2017-04-11T10:59:41.015Z,26.64
2017-04-11T11:00:41.630Z,26.25
2017-04-11T11:01:42.236Z,26.16
2017-04-11T11:02:42.847Z,25.96
2017-04-11T11:03:43.463Z,25.95
2017-04-11T11:04:44.069Z,26.24
2017-04-11T11:05:44.693Z,26.05
2017-04-11T11:06:45.291Z,26.23
2017-04-11T11:07:45.901Z,26.62
2017-04-11T11:08:46.512Z,26.62
2017-04-11T11:09:47.122Z,26.62
2017-04-11T11:10:47.737Z,26.62
2017-04-11T11:11:48.343Z,26.62
2017-04-11T11:12:48.959Z,27.01
2017-04-11T11:13:49.568Z,26.24
2017-04-11T11:14:50.177Z,26.53
2017-04-11T11:15:50.787Z,26.82
2017-04-11T11:16:51.404Z,26.62
2017-04-11T11:17:52.010Z,26.62
2017-04-11T11:18:52.619Z,26.62
2017-04-11T11:19:53.230Z,26.62
2017-04-11T11:20:53.854Z,27.11
2017-04-11T11:21:54.483Z,26.93
2017-04-11T11:22:55.103Z,26.73
2017-04-11T11:23:55.718Z,26.64
2017-04-11T11:24:56.326Z,26.64
2017-04-11T11:25:56.935Z,26.35
2017-04-11T11:26:57.544Z,26.35
2017-04-11T11:27:58.161Z,26.64
2017-04-11T11:28:58.810Z,26.84
2017-04-11T11:29:59.380Z,26.17
2017-04-11T11:30:59.988Z,25.87
2017-04-11T11:32:00.599Z,25.96
2017-04-11T11:33:01.214Z,26.06
2017-04-11T11:34:01.823Z,26.25
2017-04-11T11:35:02.442Z,26.05
2017-04-11T11:36:03.042Z,26.72
2017-04-11T11:37:03.651Z,26.34
2017-04-11T11:38:04.261Z,26.43
2017-04-11T11:39:04.877Z,26.53
2017-04-11T11:40:05.485Z,26.82
2017-04-11T11:41:06.097Z,26.62
2017-04-11T11:42:06.712Z,26.35
2017-04-11T11:43:07.324Z,26.25
2017-04-11T11:44:07.930Z,26.45
2017-04-11T11:45:08.544Z,26.35
2017-04-11T11:46:09.152Z,26.45
2017-04-11T11:47:09.765Z,26.73
2017-04-11T11:48:10.389Z,26.16
2017-04-11T11:49:10.999Z,26.25
2017-04-11T11:50:11.609Z,26.25
2017-04-11T11:51:12.218Z,26.64
2017-04-11T11:52:12.827Z,26.45
2017-04-11T11:53:13.436Z,26.83
2017-04-11T11:54:14.046Z,26.16
2017-04-11T11:55:14.657Z,26.35
2017-04-11T11:56:15.266Z,26.24
2017-04-11T11:57:15.880Z,26.53
2017-04-11T11:58:16.494Z,26.43
2017-04-11T11:59:17.100Z,26.43
2017-04-11T12:00:17.710Z,26.53
2017-04-11T12:01:18.335Z,25.95
2017-04-11T12:02:18.959Z,26.15
2017-04-11T12:03:19.569Z,26.15
2017-04-11T12:04:20.184Z,26.53
2017-04-11T12:05:20.797Z,26.15
2017-04-11T12:06:21.403Z,26.05
2017-04-11T12:07:22.011Z,26.53
2017-04-11T12:08:22.634Z,26.24
2017-04-11T12:09:23.244Z,26.15
2017-04-11T12:10:23.857Z,26.43
2017-04-11T12:11:24.464Z,26.05
2017-04-11T12:12:25.072Z,26.15
2017-04-11T12:13:25.691Z,26.34
2017-04-11T12:14:26.302Z,26.24
2017-04-11T12:15:26.912Z,26.34
2017-04-11T12:16:27.520Z,25.95
2017-04-11T12:17:28.137Z,26.05
2017-04-11T12:18:28.740Z,26.05
2017-04-11T12:19:29.349Z,26.05
2017-04-11T12:20:29.965Z,26.05
2017-04-11T12:21:30.573Z,25.95
2017-04-11T12:22:31.196Z,26.15
2017-04-11T12:23:31.812Z,26.34
2017-04-11T12:24:32.424Z,25.95
2017-04-11T12:25:33.048Z,26.05
2017-04-11T12:26:33.659Z,25.96
2017-04-11T12:27:34.268Z,26.15
2017-04-11T12:28:34.877Z,25.87
2017-04-11T12:29:35.487Z,26.35
2017-04-11T12:30:36.100Z,26.35
2017-04-11T12:31:36.706Z,26.16
2017-04-11T12:32:37.315Z,25.96
2017-04-11T12:33:37.923Z,26.16
2017-04-11T12:34:38.531Z,26.06
2017-04-11T12:35:39.142Z,26.06
2017-04-11T12:36:39.754Z,26.16
2017-04-11T12:37:40.361Z,26.06
2017-04-11T12:38:40.971Z,25.68
2017-04-11T12:39:41.579Z,25.87
2017-04-11T12:40:42.196Z,25.68
2017-04-11T12:41:42.805Z,25.87
2017-04-11T12:42:43.430Z,25.58
2017-04-11T12:43:44.038Z,25.58
2017-04-11T12:44:44.649Z,25.87
2017-04-11T12:45:45.257Z,25.87
2017-04-11T12:46:45.867Z,25.78
2017-04-11T12:47:46.496Z,25.87
2017-04-11T12:48:47.107Z,25.78
2017-04-11T12:49:47.713Z,25.78
2017-04-11T12:50:48.321Z,25.96
2017-04-11T12:51:48.929Z,25.78
2017-04-11T12:52:49.540Z,25.68
2017-04-11T12:53:50.148Z,25.67
2017-04-11T12:54:50.758Z,25.47
2017-04-11T12:55:51.367Z,25.76
2017-04-11T12:56:51.999Z,25.67
2017-04-11T12:57:52.605Z,25.56
2017-04-11T12:58:53.217Z,25.56
2017-04-11T12:59:53.820Z,25.84
2017-04-11T13:00:54.429Z,25.56
2017-04-11T13:01:55.043Z,26.04
2017-04-11T13:02:55.668Z,25.94